Huvudsida
METAR-TAF:

METAR-TAF

Flygplatser :

Miri, Malaysia

latitud: 04-20N, longitud: 113-59E, höjd: 17 m

Aktuellt väderrapport

Denna rapport gjordes för 56 minuter sedan, klockan 14:00 UTC
Vind 4 kt från ost/nordost, varierande mellan nord/nordost och ost/sydost
Temperatur 25°C
Fuktighet 94%
Tryck 1009 hPa
Sikt 10 km eller mer
Spridda moln på en höjd av 1400 ft
Brutna moln på en höjd av 15000 ft

METAR: WBGR 201400Z 07004KT 030V110 9999 SCT014 BKN150 25/24 Q1009

Tid: 22:56 (14:56 UTC)

Väderprognos

Denna rapport gjordes för 3 timmar och 56 minuter sedan, klockan 11:00 UTC
Prognos gäller från 20 kl. 12 UTC till 21 kl. 12 UTC
Vind 3 kt varierande vindriktning
Sikt: 8000 m
Få moln på en höjd av 1600 ft
Temporärt
från 20 kl. 12 UTC till 20 kl. 15 UTC
Sikt: 5000 m
Spridda moln på en höjd av 1400 ft
regn

TAF: WBGR 201100Z 2012/2112 VRB03KT 8000 FEW016 TEMPO 2012/2015 5000 RA SCT014

Aktuella väderrapporter och prognoser från 4000 flygplatser (METAR- och TAF-rapporter).

De tillgängliga stationerna syns som gula och röda prickar på kartan.

För musen över prickarna för att se namnen på stationerna.

Klicka sedan för att få väderrapporter och prognoser.

För att ändra kartan: Klicka på de gröna knapparna med ett svart kors på för att zooma in; den gröna knappen med ett streck på för att zooma ut; eller på de gröna pilarna för angränsande kartor.


METAR-TAF: